Time;durP1;ratioP1;P1;durP2;ratioP2;P2;SDS_P1;SDS_P2;PMS_P1;PMS_P2;Temp;Humidity;BMP_temperature;BMP_pressure;BME280_temperature;BME280_humidity;BME280_pressure;Samples;Min_cycle;Max_cycle;Signal;HPM_P1;HPM_P2
2021/07/06 00:01:24;;;;;;;;;;;;;;;18.23;61.76;100478.90;1639536;86;20206;-75
2021/07/06 00:03:50;;;;;;;;;;;;;;;18.22;61.67;100481.13;1640625;86;20149;-75
2021/07/06 00:06:16;;;;;;;;;;;;;;;18.20;61.68;100476.81;1639809;86;20508;-75
2021/07/06 00:08:42;;;;;;;;;;;;;;;18.19;61.64;100470.38;1639587;86;20345;-75
2021/07/06 00:11:08;;;;;;;;;;;;;;;18.15;61.77;100472.77;1640047;86;20137;-75
2021/07/06 00:13:34;;;;;;;;;;;;;;;18.11;61.75;100470.77;1641133;86;20433;-75
2021/07/06 00:16:00;;;;;;;;;;;;;;;18.06;61.69;100470.60;1641111;86;20220;-75
2021/07/06 00:18:26;;;;;;;;;;;;;;;18.03;61.78;100478.60;1639641;86;20210;-75
2021/07/06 00:20:52;;;;;;;;;;;;;;;17.98;61.70;100479.28;1633723;86;20294;-75
2021/07/06 00:23:18;;;;;;;;;;;;;;;17.94;61.71;100479.05;1633437;86;20196;-75
2021/07/06 00:25:47;;;;;;;;;;;;;;;17.90;61.80;100478.80;1626832;86;20199;-75
2021/07/06 00:28:14;;;;;;;;;;;;;;;17.88;61.79;100481.95;1643681;86;20198;-75
2021/07/06 00:30:40;;;;;;;;;;;;;;;17.84;61.89;100483.41;1639528;86;20249;-75
2021/07/06 00:33:06;;;;;;;;;;;;;;;17.79;61.78;100482.78;1640820;86;20200;-75
2021/07/06 00:35:32;;;;;;;;;;;;;;;17.73;61.89;100480.92;1619133;87;20205;-75
2021/07/06 00:37:58;;;;;;;;;;;;;;;17.66;61.92;100476.93;1639666;86;20193;-75
2021/07/06 00:40:24;;;;;;;;;;;;;;;17.62;61.99;100474.89;1639818;86;20226;-75
2021/07/06 00:42:58;;;;;;;;;;;;;;;17.59;62.00;100473.73;1639887;86;20174;-74
2021/07/06 00:45:21;;;;;;;;;;;;;;;17.56;62.02;100476.48;1638611;86;20221;-74
2021/07/06 00:47:47;;;;;;;;;;;;;;;17.54;62.01;100469.17;1639853;86;20211;-74
2021/07/06 00:50:16;;;;;;;;;;;;;;;17.51;62.01;100477.16;1633006;86;20196;-74
2021/07/06 00:52:43;;;;;;;;;;;;;;;17.48;62.03;100477.30;1555049;86;20225;-74
2021/07/06 00:55:10;;;;;;;;;;;;;;;17.44;62.04;100483.12;1584754;88;20197;-74
2021/07/06 00:57:37;;;;;;;;;;;;;;;17.32;62.07;100480.23;1606189;88;20178;-74
2021/07/06 01:00:09;;;;;;;;;;;;;;;17.29;62.23;100486.91;1573003;89;20206;-74
2021/07/06 01:02:36;;;;;;;;;;;;;;;17.27;62.31;100486.97;1601326;88;20215;-74
2021/07/06 01:05:05;;;;;;;;;;;;;;;17.27;62.32;100492.20;1600907;87;20193;-74
2021/07/06 01:07:31;;;;;;;;;;;;;;;17.24;62.37;100494.95;1598203;88;20182;-74
2021/07/06 01:10:01;;;;;;;;;;;;;;;17.22;62.40;100491.56;1604385;88;20183;-74
2021/07/06 01:12:27;;;;;;;;;;;;;;;17.21;62.44;100488.56;1598530;88;20249;-74
2021/07/06 01:14:53;;;;;;;;;;;;;;;17.18;62.46;100493.46;1599407;88;20186;-74
2021/07/06 01:17:27;;;;;;;;;;;;;;;17.16;62.47;100485.30;1599972;88;20364;-74
2021/07/06 01:19:53;;;;;;;;;;;;;;;17.15;62.54;100487.09;1594787;88;20139;-74
2021/07/06 01:22:28;;;;;;;;;;;;;;;17.13;62.51;100496.77;1599862;88;20140;-74
2021/07/06 01:24:54;;;;;;;;;;;;;;;17.11;62.54;100490.77;1598516;88;20107;-74
2021/07/06 01:27:21;;;;;;;;;;;;;;;17.09;62.54;100486.53;1600381;89;20139;-74
2021/07/06 01:29:47;;;;;;;;;;;;;;;17.07;62.54;100488.36;1599807;88;20102;-74
2021/07/06 01:32:13;;;;;;;;;;;;;;;17.06;62.62;100484.05;1597389;88;20111;-74
2021/07/06 01:34:39;;;;;;;;;;;;;;;17.01;62.58;100481.64;1600630;89;20193;-74
2021/07/06 01:37:06;;;;;;;;;;;;;;;16.99;62.57;100481.32;1600517;88;20451;-74
2021/07/06 01:39:32;;;;;;;;;;;;;;;16.96;62.57;100486.68;1608295;88;20131;-74
2021/07/06 01:41:58;;;;;;;;;;;;;;;16.93;62.56;100485.52;1606880;87;20107;-75
2021/07/06 01:44:26;;;;;;;;;;;;;;;16.88;62.63;100489.17;1599707;88;20177;-75
2021/07/06 01:46:53;;;;;;;;;;;;;;;16.86;62.61;100486.23;1610813;88;20098;-75
2021/07/06 01:49:19;;;;;;;;;;;;;;;16.82;62.68;100480.30;1606293;86;323199;-74
2021/07/06 01:51:46;;;;;;;;;;;;;;;16.79;62.68;100479.12;1624591;87;20550;-74
2021/07/06 01:54:13;;;;;;;;;;;;;;;16.75;62.71;100480.17;1624523;87;20164;-74
2021/07/06 01:56:40;;;;;;;;;;;;;;;16.72;62.75;100476.84;1623949;87;20112;-74
2021/07/06 01:59:07;;;;;;;;;;;;;;;16.69;62.73;100474.37;1624392;88;20144;-74
2021/07/06 02:01:34;;;;;;;;;;;;;;;16.66;62.83;100478.41;1615917;88;20161;-74
2021/07/06 02:04:01;;;;;;;;;;;;;;;16.64;62.86;100481.09;1637860;87;20136;-74
2021/07/06 02:06:27;;;;;;;;;;;;;;;16.62;62.86;100479.46;1624078;88;20136;-74
2021/07/06 02:08:56;;;;;;;;;;;;;;;16.61;62.94;100484.30;1615655;88;20141;-74
2021/07/06 02:11:22;;;;;;;;;;;;;;;16.59;62.92;100476.52;1616028;87;20189;-74
2021/07/06 02:13:48;;;;;;;;;;;;;;;16.57;62.91;100476.20;1615598;87;20162;-74
2021/07/06 02:16:14;;;;;;;;;;;;;;;16.53;62.98;100475.02;1615953;87;20138;-74
2021/07/06 02:18:41;;;;;;;;;;;;;;;16.52;63.04;100477.70;1615587;88;20469;-74
2021/07/06 02:21:07;;;;;;;;;;;;;;;16.49;63.05;100477.37;1616104;88;20142;-74
2021/07/06 02:23:33;;;;;;;;;;;;;;;16.47;63.07;100477.89;1615543;87;20145;-74
2021/07/06 02:26:02;;;;;;;;;;;;;;;16.46;63.08;100474.89;1615327;87;20185;-74
2021/07/06 02:28:29;;;;;;;;;;;;;;;16.43;63.11;100473.72;1615636;87;20180;-74
2021/07/06 02:30:55;;;;;;;;;;;;;;;16.41;63.13;100478.16;1616246;87;20129;-74
2021/07/06 02:33:23;;;;;;;;;;;;;;;16.40;63.15;100478.22;1616494;87;20142;-74
2021/07/06 02:35:49;;;;;;;;;;;;;;;16.38;63.14;100478.28;1616188;87;20154;-74
2021/07/06 02:38:16;;;;;;;;;;;;;;;16.36;63.13;100485.78;1615673;88;20151;-74
2021/07/06 02:40:42;;;;;;;;;;;;;;;16.33;63.13;100480.23;1616064;88;20133;-74
2021/07/06 02:43:08;;;;;;;;;;;;;;;16.30;63.15;100489.49;1615954;87;20138;-74
2021/07/06 02:45:35;;;;;;;;;;;;;;;16.27;63.14;100486.16;1615769;87;20155;-74
2021/07/06 02:48:01;;;;;;;;;;;;;;;16.22;63.24;100488.50;1616329;87;20161;-74
2021/07/06 02:50:28;;;;;;;;;;;;;;;16.22;63.29;100487.66;1615767;87;20177;-74
2021/07/06 02:52:54;;;;;;;;;;;;;;;16.18;63.30;100484.32;1637130;86;20127;-75
2021/07/06 02:55:21;;;;;;;;;;;;;;;16.16;63.37;100488.75;1626218;87;20109;-74
2021/07/06 02:57:47;;;;;;;;;;;;;;;16.14;63.36;100487.97;1625988;87;20133;-74
2021/07/06 03:00:27;;;;;;;;;;;;;;;16.13;63.41;100495.86;1626180;87;20145;-74
2021/07/06 03:02:55;;;;;;;;;;;;;;;16.12;63.42;100500.23;1626239;87;20092;-74
2021/07/06 03:05:24;;;;;;;;;;;;;;;16.12;63.41;100499.38;1625844;87;20116;-74
2021/07/06 03:07:51;;;;;;;;;;;;;;;16.09;63.42;100504.30;1626218;87;20164;-74
2021/07/06 03:10:26;;;;;;;;;;;;;;;16.09;63.42;100500.84;1636249;87;20143;-74
2021/07/06 03:12:53;;;;;;;;;;;;;;;16.08;63.60;100497.84;1636136;86;20139;-74
2021/07/06 03:15:22;;;;;;;;;;;;;;;16.10;63.59;100508.59;1615315;88;20158;-75
2021/07/06 03:17:48;;;;;;;;;;;;;;;16.11;63.69;100506.84;1602925;88;20451;-73
2021/07/06 03:20:16;;;;;;;;;;;;;;;16.13;63.69;100508.90;1616134;87;20130;-74
2021/07/06 03:22:42;;;;;;;;;;;;;;;16.14;63.83;100510.14;1616178;87;20154;-74
2021/07/06 03:25:10;;;;;;;;;;;;;;;16.18;63.79;100510.87;1616011;88;20130;-75
2021/07/06 03:27:36;;;;;;;;;;;;;;;16.18;63.68;100519.55;1614901;87;20122;-75
2021/07/06 03:30:07;;;;;;;;;;;;;;;16.17;63.63;100525.67;1595649;88;20465;-74
2021/07/06 03:32:33;;;;;;;;;;;;;;;16.19;63.79;100527.77;1617232;87;20106;-74
2021/07/06 03:35:01;;;;;;;;;;;;;;;16.21;63.78;100525.09;1599305;87;20121;-74
2021/07/06 03:37:27;;;;;;;;;;;;;;;16.23;63.82;100528.48;1614713;87;20130;-74
2021/07/06 03:39:53;;;;;;;;;;;;;;;16.26;63.88;100530.12;1615313;87;20162;-74
2021/07/06 03:42:19;;;;;;;;;;;;;;;16.27;63.88;100537.05;1637157;86;20227;-75
2021/07/06 03:44:45;;;;;;;;;;;;;;;16.26;64.04;100538.80;1633718;86;20125;-75
2021/07/06 03:47:11;;;;;;;;;;;;;;;16.27;64.19;100534.44;1616770;88;20140;-74
2021/07/06 03:49:38;;;;;;;;;;;;;;;16.30;64.30;100531.24;1629373;87;20112;-74
2021/07/06 03:52:05;;;;;;;;;;;;;;;16.36;64.37;100537.52;1636856;86;20250;-74
2021/07/06 03:54:31;;;;;;;;;;;;;;;16.42;64.45;100540.33;1625941;86;20116;-75
2021/07/06 03:56:57;;;;;;;;;;;;;;;16.47;64.39;100538.38;1627117;86;20190;-73
2021/07/06 03:59:23;;;;;;;;;;;;;;;16.53;64.49;100532.45;1627732;86;20234;-74
2021/07/06 04:01:50;;;;;;;;;;;;;;;16.59;64.55;100530.05;1630230;86;20088;-73
2021/07/06 04:04:16;;;;;;;;;;;;;;;16.65;64.61;100527.63;1631857;86;20092;-75
2021/07/06 04:06:42;;;;;;;;;;;;;;;16.73;64.65;100530.31;1626861;87;20226;-74
2021/07/06 04:09:08;;;;;;;;;;;;;;;16.80;64.77;100525.22;1623480;86;20747;-74
2021/07/06 04:11:34;;;;;;;;;;;;;;;16.93;64.89;100530.77;1633344;86;20289;-74
2021/07/06 04:14:00;;;;;;;;;;;;;;;17.17;64.95;100534.88;1629089;86;20250;-74
2021/07/06 04:16:27;;;;;;;;;;;;;;;17.43;65.10;100535.48;1629116;86;20128;-74
2021/07/06 04:18:53;;;;;;;;;;;;;;;17.65;64.87;100537.97;1629501;86;20152;-75
2021/07/06 04:21:19;;;;;;;;;;;;;;;17.79;64.77;100532.94;1628849;86;20230;-74
2021/07/06 04:23:48;;;;;;;;;;;;;;;17.88;64.71;100536.89;1634902;86;20111;-75
2021/07/06 04:26:14;;;;;;;;;;;;;;;17.97;64.74;100536.45;1627581;86;20120;-75
2021/07/06 04:28:41;;;;;;;;;;;;;;;18.09;64.79;100530.17;1629459;86;20156;-74
2021/07/06 04:31:07;;;;;;;;;;;;;;;18.22;64.75;100533.48;1626096;86;20128;-74
2021/07/06 04:33:33;;;;;;;;;;;;;;;18.29;64.69;100534.41;1643963;86;20102;-74
2021/07/06 04:35:59;;;;;;;;;;;;;;;18.36;64.70;100540.20;1626655;86;20148;-74
2021/07/06 04:38:25;;;;;;;;;;;;;;;18.41;64.74;100535.12;1629042;86;20730;-74
2021/07/06 04:40:52;;;;;;;;;;;;;;;18.47;64.76;100545.75;1628415;86;20112;-75
2021/07/06 04:43:18;;;;;;;;;;;;;;;18.55;64.83;100546.22;1627467;86;20129;-75
2021/07/06 04:45:44;;;;;;;;;;;;;;;18.66;64.83;100549.64;1628933;86;20128;-75
2021/07/06 04:48:10;;;;;;;;;;;;;;;18.74;64.81;100543.06;1629556;87;20160;-75
2021/07/06 04:50:38;;;;;;;;;;;;;;;18.82;64.88;100542.21;1628550;86;20132;-74
2021/07/06 04:53:05;;;;;;;;;;;;;;;18.91;64.91;100540.05;1628860;86;20132;-75
2021/07/06 04:55:31;;;;;;;;;;;;;;;18.98;64.90;100546.20;1626970;86;20167;-75
2021/07/06 04:57:57;;;;;;;;;;;;;;;19.08;65.01;100550.04;1628740;88;20136;-75
2021/07/06 05:00:23;;;;;;;;;;;;;;;19.24;65.10;100555.76;1625257;86;20270;-75
2021/07/06 05:02:50;;;;;;;;;;;;;;;19.46;65.19;100553.23;1631297;86;20590;-75
2021/07/06 05:05:16;;;;;;;;;;;;;;;19.83;65.34;100561.27;1629626;86;20168;-75
2021/07/06 05:07:42;;;;;;;;;;;;;;;20.31;65.29;100552.02;1629423;88;20167;-75
2021/07/06 05:10:16;;;;;;;;;;;;;;;20.91;65.36;100548.91;1626839;86;20117;-75
2021/07/06 05:12:42;;;;;;;;;;;;;;;21.59;64.90;100547.79;1629518;86;20143;-75
2021/07/06 05:15:09;;;;;;;;;;;;;;;22.15;64.78;100551.23;1629512;86;20262;-75
2021/07/06 05:17:35;;;;;;;;;;;;;;;22.82;64.45;100548.55;1629380;86;20168;-75
2021/07/06 05:20:01;;;;;;;;;;;;;;;23.35;63.84;100550.95;1632734;86;20140;-75
2021/07/06 05:22:27;;;;;;;;;;;;;;;23.90;63.96;100552.30;1635267;86;20755;-75
2021/07/06 05:24:53;;;;;;;;;;;;;;;24.35;63.57;100551.22;1630529;86;20558;-75
2021/07/06 05:27:19;;;;;;;;;;;;;;;24.80;63.29;100556.62;1633185;86;20274;-76
2021/07/06 05:29:45;;;;;;;;;;;;;;;25.35;63.11;100561.14;1629343;88;20139;-76
2021/07/06 05:32:12;;;;;;;;;;;;;;;25.78;62.66;100560.39;1626795;86;20172;-76
2021/07/06 05:34:38;;;;;;;;;;;;;;;26.30;62.79;100576.85;1606905;86;20160;-76
2021/07/06 05:37:04;;;;;;;;;;;;;;;26.87;62.47;100579.12;1628026;86;20806;-76
2021/07/06 05:39:30;;;;;;;;;;;;;;;27.27;62.02;100577.88;1628815;86;20218;-77
2021/07/06 05:41:57;;;;;;;;;;;;;;;27.43;62.03;100585.36;1629117;86;20187;-76
2021/07/06 05:44:23;;;;;;;;;;;;;;;27.73;61.95;100584.50;1625048;87;20112;-76
2021/07/06 05:46:49;;;;;;;;;;;;;;;28.08;61.67;100582.66;1628413;86;20139;-77
2021/07/06 05:49:16;;;;;;;;;;;;;;;28.50;61.67;100589.94;1628895;86;20105;-75
2021/07/06 05:51:42;;;;;;;;;;;;;;;28.89;61.27;100589.41;1625747;88;20186;-77
2021/07/06 05:54:08;;;;;;;;;;;;;;;28.85;61.26;100587.18;1628911;86;20112;-77
2021/07/06 05:56:34;;;;;;;;;;;;;;;29.10;61.03;100582.58;1636292;86;20152;-77
2021/07/06 05:59:01;;;;;;;;;;;;;;;29.55;60.94;100584.02;1627686;86;20234;-76
2021/07/06 06:01:30;;;;;;;;;;;;;;;29.87;60.60;100583.55;1622188;86;20104;-76
2021/07/06 06:03:55;;;;;;;;;;;;;;;30.29;60.27;100581.16;1613410;86;20131;-76
2021/07/06 06:06:21;;;;;;;;;;;;;;;30.73;60.02;100581.70;1620117;86;20174;-76
2021/07/06 06:08:47;;;;;;;;;;;;;;;31.01;59.68;100591.75;1613076;86;20167;-76
2021/07/06 06:11:13;;;;;;;;;;;;;;;31.44;59.47;100589.00;1617040;86;21126;-76
2021/07/06 06:13:39;;;;;;;;;;;;;;;31.82;59.11;100586.81;1619216;86;20136;-76
2021/07/06 06:16:07;;;;;;;;;;;;;;;32.15;58.63;100585.06;1617647;86;20173;-76
2021/07/06 06:18:33;;;;;;;;;;;;;;;32.31;58.40;100584.25;1619755;86;20114;-76
2021/07/06 06:20:59;;;;;;;;;;;;;;;32.34;58.19;100582.58;1617733;86;20110;-76
2021/07/06 06:23:25;;;;;;;;;;;;;;;32.64;58.03;100589.95;1616903;86;20143;-76
2021/07/06 06:25:51;;;;;;;;;;;;;;;32.97;57.84;100590.77;1614108;86;20156;-76
2021/07/06 06:28:17;;;;;;;;;;;;;;;33.32;57.58;100590.85;1617986;86;20813;-76
2021/07/06 06:30:43;;;;;;;;;;;;;;;33.50;57.21;100588.78;1617607;86;20175;-76
2021/07/06 06:33:09;;;;;;;;;;;;;;;33.78;56.79;100589.66;1619160;86;20185;-75
2021/07/06 06:35:40;;;;;;;;;;;;;;;33.93;56.52;100597.80;1616769;87;20427;-75
2021/07/06 06:38:05;;;;;;;;;;;;;;;33.82;56.13;100596.34;1620329;86;20155;-75
2021/07/06 06:40:32;;;;;;;;;;;;;;;33.90;56.00;100593.63;1612283;87;20144;-77
2021/07/06 06:42:57;;;;;;;;;;;;;;;33.65;55.61;100598.27;1632707;86;20160;-76
2021/07/06 06:45:24;;;;;;;;;;;;;;;33.49;55.24;100596.48;1628874;86;20120;-79
2021/07/06 06:47:50;;;;;;;;;;;;;;;33.31;54.92;100604.42;1628594;86;20148;-78
2021/07/06 06:50:16;;;;;;;;;;;;;;;32.97;54.50;100600.14;1625195;86;20104;-78
2021/07/06 06:52:43;;;;;;;;;;;;;;;33.08;54.51;100597.11;1625304;87;20100;-78
2021/07/06 06:55:10;;;;;;;;;;;;;;;32.87;53.98;100596.80;1625222;86;20512;-78
2021/07/06 06:57:36;;;;;;;;;;;;;;;32.91;53.59;100604.84;1626223;88;20128;-78
2021/07/06 07:00:04;;;;;;;;;;;;;;;32.94;53.37;100601.81;1626290;87;20159;-78
2021/07/06 07:02:30;;;;;;;;;;;;;;;32.83;53.15;100601.66;1628306;86;20098;-78
2021/07/06 07:04:57;;;;;;;;;;;;;;;32.79;52.90;100600.33;1626064;88;20116;-78
2021/07/06 07:07:23;;;;;;;;;;;;;;;32.97;52.39;100596.13;1621342;87;20143;-79
2021/07/06 07:09:50;;;;;;;;;;;;;;;33.05;52.45;100596.61;1627052;87;20136;-79
2021/07/06 07:12:17;;;;;;;;;;;;;;;33.04;51.88;100593.09;1624755;87;20105;-79
2021/07/06 07:14:44;;;;;;;;;;;;;;;33.24;51.74;100594.89;1623051;87;20144;-79
2021/07/06 07:17:10;;;;;;;;;;;;;;;33.52;51.33;100592.13;1626665;88;20160;-79
2021/07/06 07:19:36;;;;;;;;;;;;;;;33.72;50.98;100587.17;1627809;86;20476;-79
2021/07/06 07:22:04;;;;;;;;;;;;;;;33.78;50.71;100584.30;1625263;87;20100;-79
2021/07/06 07:24:30;;;;;;;;;;;;;;;33.92;50.56;100584.89;1624811;87;20164;-79
2021/07/06 07:26:57;;;;;;;;;;;;;;;34.04;50.37;100583.98;1626592;87;20181;-79
2021/07/06 07:29:23;;;;;;;;;;;;;;;34.18;50.35;100584.06;1624584;87;20157;-79
2021/07/06 07:31:49;;;;;;;;;;;;;;;34.32;49.87;100589.16;1627544;86;20152;-79
2021/07/06 07:34:15;;;;;;;;;;;;;;;34.28;49.74;100588.36;1621305;87;20160;-79
2021/07/06 07:36:42;;;;;;;;;;;;;;;34.40;49.66;100593.13;1624695;88;20127;-79
2021/07/06 07:39:09;;;;;;;;;;;;;;;34.60;49.50;100589.95;1627314;86;20120;-79
2021/07/06 07:41:35;;;;;;;;;;;;;;;34.34;49.23;100586.30;1625627;87;20129;-79
2021/07/06 07:44:01;;;;;;;;;;;;;;;34.44;49.00;100586.39;1626721;86;20595;-79
2021/07/06 07:46:28;;;;;;;;;;;;;;;34.63;48.95;100586.40;1626963;87;20139;-79
2021/07/06 07:48:55;;;;;;;;;;;;;;;34.86;48.66;100586.36;1626970;87;20147;-79
2021/07/06 07:51:21;;;;;;;;;;;;;;;34.96;48.36;100590.97;1626305;88;20132;-79
2021/07/06 07:53:47;;;;;;;;;;;;;;;35.01;47.67;100591.76;1625385;87;20127;-79
2021/07/06 07:56:13;;;;;;;;;;;;;;;35.17;47.56;100592.42;1627233;87;20171;-79
2021/07/06 07:58:39;;;;;;;;;;;;;;;35.03;46.92;100586.52;1627357;87;20576;-79
2021/07/06 08:01:06;;;;;;;;;;;;;;;34.93;46.77;100592.67;1626507;88;20144;-79
2021/07/06 08:03:32;;;;;;;;;;;;;;;34.83;46.31;100594.28;1629906;86;20135;-79
2021/07/06 08:06:00;;;;;;;;;;;;;;;34.71;46.00;100595.73;1628813;86;20127;-79
2021/07/06 08:08:26;;;;;;;;;;;;;;;34.59;45.83;100598.52;1624730;86;20104;-79
2021/07/06 08:10:53;;;;;;;;;;;;;;;34.52;45.47;100595.72;1626946;87;20128;-79
2021/07/06 08:13:23;;;;;;;;;;;;;;;34.43;45.62;100590.59;1627346;86;20124;-78
2021/07/06 08:15:50;;;;;;;;;;;;;;;34.41;45.21;100586.75;1622473;88;20090;-78
2021/07/06 08:18:16;;;;;;;;;;;;;;;34.31;44.91;100590.21;1627176;88;20112;-78
2021/07/06 08:20:43;;;;;;;;;;;;;;;34.14;44.66;100581.40;1628000;88;20100;-78
2021/07/06 08:23:09;;;;;;;;;;;;;;;34.15;45.03;100587.61;1628505;88;20160;-79
2021/07/06 08:25:35;;;;;;;;;;;;;;;34.13;44.66;100581.08;1628178;86;20136;-79
2021/07/06 08:28:01;;;;;;;;;;;;;;;33.98;44.20;100582.01;1628656;87;20156;-78
2021/07/06 08:30:27;;;;;;;;;;;;;;;34.03;44.04;100578.29;1628547;86;20135;-78
2021/07/06 08:32:54;;;;;;;;;;;;;;;34.02;43.71;100569.91;1630221;86;20104;-78
2021/07/06 08:35:20;;;;;;;;;;;;;;;33.94;43.95;100576.16;1618127;86;20115;-78
2021/07/06 08:37:46;;;;;;;;;;;;;;;33.80;44.11;100576.91;1627899;88;20132;-78
2021/07/06 08:40:13;;;;;;;;;;;;;;;33.52;43.38;100570.67;1624254;86;20738;-78
2021/07/06 08:42:39;;;;;;;;;;;;;;;33.31;43.23;100569.58;1618398;86;20159;-78
2021/07/06 08:45:08;;;;;;;;;;;;;;;33.21;43.05;100563.08;1609750;88;20165;-78
2021/07/06 08:47:34;;;;;;;;;;;;;;;33.10;43.17;100569.64;1627941;87;20140;-78
2021/07/06 08:50:06;;;;;;;;;;;;;;;32.94;42.75;100563.48;1616993;87;20396;-77
2021/07/06 08:52:33;;;;;;;;;;;;;;;32.80;42.51;100564.50;1625508;86;20112;-76
2021/07/06 08:54:59;;;;;;;;;;;;;;;32.50;42.29;100571.88;1615101;88;20164;-77
2021/07/06 08:57:25;;;;;;;;;;;;;;;32.38;42.40;100571.88;1626680;88;20191;-76
2021/07/06 08:59:51;;;;;;;;;;;;;;;32.34;42.19;100565.17;1617273;88;20195;-76
2021/07/06 09:02:20;;;;;;;;;;;;;;;32.80;42.05;100564.50;1626908;86;21074;-74
2021/07/06 09:04:50;;;;;;;;;;;;;;;33.39;42.13;100565.02;1622132;86;20160;-74
2021/07/06 09:07:17;;;;;;;;;;;;;;;33.99;41.37;100569.76;1619357;86;20132;-75
2021/07/06 09:09:43;;;;;;;;;;;;;;;34.54;41.44;100570.03;1625485;87;20117;-76
2021/07/06 09:12:11;;;;;;;;;;;;;;;35.16;41.34;100569.75;1627033;86;20136;-73
2021/07/06 09:14:40;;;;;;;;;;;;;;;35.54;40.80;100573.17;1626542;87;20164;-72
2021/07/06 09:17:23;;;;;;;;;;;;;;;35.77;41.27;100577.91;1622273;88;20594;-73
2021/07/06 09:19:51;;;;;;;;;;;;;;;35.66;40.78;100576.21;1623795;87;20143;-73
2021/07/06 09:22:20;;;;;;;;;;;;;;;35.68;40.33;100572.82;1627199;86;20534;-73
2021/07/06 09:24:48;;;;;;;;;;;;;;;35.54;40.40;100577.71;1627304;88;20128;-73
2021/07/06 09:27:30;;;;;;;;;;;;;;;35.31;40.23;100577.34;1624295;88;20415;-73
2021/07/06 09:30:18;;;;;;;;;;;;;;;34.94;40.23;100578.22;1626616;88;20120;-73
2021/07/06 09:32:56;;;;;;;;;;;;;;;34.41;40.14;100573.83;1628164;87;20184;-73
2021/07/06 09:35:25;;;;;;;;;;;;;;;33.65;40.04;100566.09;1628049;86;20120;-73
2021/07/06 09:37:54;;;;;;;;;;;;;;;33.00;39.68;100561.45;1627361;88;20165;-73
2021/07/06 09:40:21;;;;;;;;;;;;;;;32.45;39.65;100544.27;1625225;87;20120;-73
2021/07/06 09:42:47;;;;;;;;;;;;;;;31.99;39.54;100548.91;1625857;87;20136;-73
2021/07/06 09:45:16;;;;;;;;;;;;;;;31.58;39.38;100556.31;1627409;87;20234;-73
2021/07/06 09:47:46;;;;;;;;;;;;;;;31.34;39.10;100549.53;1625496;88;20135;-73
2021/07/06 09:50:13;;;;;;;;;;;;;;;31.03;38.91;100547.86;1624070;87;20132;-73
2021/07/06 09:52:39;;;;;;;;;;;;;;;30.69;38.98;100549.63;1618651;85;25530;-73
2021/07/06 09:55:09;;;;;;;;;;;;;;;30.45;38.92;100548.94;1627942;87;20293;-73
2021/07/06 09:57:37;;;;;;;;;;;;;;;30.16;38.79;100554.02;1626850;87;20150;-73
2021/07/06 10:00:09;;;;;;;;;;;;;;;30.01;38.78;100562.23;1628994;88;20164;-73
2021/07/06 10:02:36;;;;;;;;;;;;;;;29.83;38.74;100546.17;1621992;86;20114;-73
2021/07/06 10:05:07;;;;;;;;;;;;;;;29.71;38.67;100542.04;1630977;86;20164;-73
2021/07/06 10:07:35;;;;;;;;;;;;;;;29.65;38.59;100528.81;1627793;87;20116;-79
2021/07/06 10:10:01;;;;;;;;;;;;;;;29.62;38.71;100542.97;1606854;88;20112;-82
2021/07/06 10:12:27;;;;;;;;;;;;;;;29.55;38.54;100536.06;1626904;88;20144;-79
2021/07/06 10:14:53;;;;;;;;;;;;;;;29.51;38.57;100535.17;1628330;88;20179;-80
2021/07/06 10:17:21;;;;;;;;;;;;;;;29.50;38.69;100537.00;1628922;88;20237;-80
2021/07/06 10:19:47;;;;;;;;;;;;;;;29.54;38.68;100535.72;1628985;86;20163;-80
2021/07/06 10:22:15;;;;;;;;;;;;;;;29.47;38.65;100533.30;1628193;87;20164;-79
2021/07/06 10:24:43;;;;;;;;;;;;;;;29.39;38.67;100537.65;1629900;86;20160;-80
2021/07/06 10:27:24;;;;;;;;;;;;;;;29.29;38.61;100535.03;1629464;86;20128;-79
2021/07/06 10:30:08;;;;;;;;;;;;;;;29.16;38.62;100539.84;1627087;86;20140;-80
2021/07/06 10:32:39;;;;;;;;;;;;;;;28.97;38.78;100537.63;1627813;86;20120;-76
2021/07/06 10:35:08;;;;;;;;;;;;;;;28.99;38.87;100536.15;1627758;86;20178;-76
2021/07/06 10:37:34;;;;;;;;;;;;;;;29.03;38.79;100529.55;1627836;86;20108;-76
2021/07/06 10:40:18;;;;;;;;;;;;;;;29.02;38.89;100525.20;1630823;86;20175;-76
2021/07/06 10:42:50;;;;;;;;;;;;;;;29.07;38.94;100532.77;1616255;86;20120;-76
2021/07/06 10:45:28;;;;;;;;;;;;;;;29.05;38.75;100534.73;1625922;86;20127;-78
2021/07/06 10:47:55;;;;;;;;;;;;;;;29.05;38.81;100521.41;1626645;88;20466;-78
2021/07/06 10:50:33;;;;;;;;;;;;;;;29.02;38.79;100519.05;1627566;86;20148;-75
2021/07/06 10:53:22;;;;;;;;;;;;;;;28.93;38.80;100516.27;1629278;88;20143;-76
2021/07/06 10:56:10;;;;;;;;;;;;;;;28.88;38.87;100523.84;1626589;86;20587;-75
2021/07/06 10:58:50;;;;;;;;;;;;;;;28.86;38.94;100521.82;1629345;88;20164;-75
2021/07/06 11:01:40;;;;;;;;;;;;;;;29.01;39.00;100511.55;1626121;88;20168;-75
2021/07/06 11:04:07;;;;;;;;;;;;;;;29.09;38.92;100512.16;1581854;89;20175;-75
2021/07/06 11:06:49;;;;;;;;;;;;;;;29.12;38.84;100514.00;1619163;87;20099;-75
2021/07/06 11:09:33;;;;;;;;;;;;;;;29.10;38.68;100506.68;1623091;88;20140;-75
2021/07/06 11:12:31;;;;;;;;;;;;;;;29.15;38.84;100508.88;1625983;87;20156;-75
2021/07/06 11:15:05;;;;;;;;;;;;;;;29.28;38.89;100500.05;1626852;87;20391;-75
2021/07/06 11:17:35;;;;;;;;;;;;;;;29.41;38.84;100505.04;1578843;88;37787;-75
2021/07/06 11:20:07;;;;;;;;;;;;;;;29.35;38.70;100497.64;1628878;88;20146;-75
2021/07/06 11:22:45;;;;;;;;;;;;;;;29.33;38.91;100497.79;1628992;87;20128;-75
2021/07/06 11:25:21;;;;;;;;;;;;;;;29.43;38.87;100497.77;1630215;86;20132;-75
2021/07/06 11:28:19;;;;;;;;;;;;;;;29.44;38.81;100485.63;1635859;87;20148;-75
2021/07/06 11:30:56;;;;;;;;;;;;;;;29.51;38.91;100488.05;1619978;87;20436;-75
2021/07/06 11:33:25;;;;;;;;;;;;;;;29.54;38.90;100503.73;1626142;87;20112;-76
2021/07/06 11:35:53;;;;;;;;;;;;;;;29.49;38.77;100495.84;1604252;88;20145;-76
2021/07/06 11:38:23;;;;;;;;;;;;;;;29.46;39.01;100487.66;1619290;87;20140;-76
2021/07/06 11:40:54;;;;;;;;;;;;;;;29.59;39.00;100494.80;1627075;87;20132;-76
2021/07/06 11:43:22;;;;;;;;;;;;;;;29.71;39.10;100488.73;1605454;88;20154;-76
2021/07/06 11:45:56;;;;;;;;;;;;;;;29.84;38.89;100494.53;1625430;87;20112;-76
2021/07/06 11:48:24;;;;;;;;;;;;;;;29.89;38.90;100490.08;1622036;87;20129;-76
2021/07/06 11:50:51;;;;;;;;;;;;;;;29.96;38.81;100494.66;1618951;87;20128;-76
2021/07/06 11:53:25;;;;;;;;;;;;;;;30.00;38.80;100490.38;1619969;87;20116;-76
2021/07/06 11:55:51;;;;;;;;;;;;;;;30.05;38.94;100483.59;1637385;87;20091;-76
2021/07/06 11:58:20;;;;;;;;;;;;;;;30.10;38.83;100485.81;1627903;86;20110;-76
2021/07/06 12:00:46;;;;;;;;;;;;;;;30.17;38.98;100478.34;1625740;87;20149;-76
2021/07/06 12:03:18;;;;;;;;;;;;;;;30.27;38.78;100475.09;1640213;86;20121;-76
2021/07/06 12:05:48;;;;;;;;;;;;;;;30.28;38.84;100478.10;1626505;86;20171;-76
2021/07/06 12:08:20;;;;;;;;;;;;;;;30.33;38.79;100483.47;1626105;87;20112;-76
2021/07/06 12:10:56;;;;;;;;;;;;;;;30.28;38.65;100472.77;1625518;87;20100;-76
2021/07/06 12:13:23;;;;;;;;;;;;;;;30.16;38.61;100473.16;1626074;87;20108;-76
2021/07/06 12:15:49;;;;;;;;;;;;;;;29.97;38.75;100479.00;1624608;87;20112;-76
2021/07/06 12:18:16;;;;;;;;;;;;;;;29.93;38.79;100475.45;1605262;87;20137;-76
2021/07/06 12:20:42;;;;;;;;;;;;;;;29.99;38.81;100470.84;1626177;87;20108;-76
2021/07/06 12:23:08;;;;;;;;;;;;;;;30.12;38.78;100465.16;1595897;87;20103;-76
2021/07/06 12:25:35;;;;;;;;;;;;;;;30.17;38.76;100456.16;1625790;87;20144;-76
2021/07/06 12:28:01;;;;;;;;;;;;;;;30.20;38.64;100460.70;1625969;87;20092;-76
2021/07/06 12:30:27;;;;;;;;;;;;;;;30.18;38.65;100453.84;1625922;87;20111;-76
2021/07/06 12:33:08;;;;;;;;;;;;;;;30.22;38.66;100457.87;1625332;87;20100;-76
2021/07/06 12:35:34;;;;;;;;;;;;;;;30.25;38.66;100457.56;1624170;87;20124;-76
2021/07/06 12:38:06;;;;;;;;;;;;;;;30.33;38.81;100458.13;1626416;86;20148;-76
2021/07/06 12:40:35;;;;;;;;;;;;;;;30.40;38.56;100453.84;1622524;87;20116;-76